createdAt,value
2018-10-12T00:01:49.178Z,11.13
2018-10-12T00:04:20.153Z,12.40
2018-10-12T00:06:49.944Z,12.37
2018-10-12T00:09:20.978Z,12.80
2018-10-12T00:11:51.147Z,12.47
2018-10-12T00:14:21.293Z,12.80
2018-10-12T00:16:51.260Z,12.27
2018-10-12T00:19:21.503Z,11.50
2018-10-12T00:21:51.475Z,12.53
2018-10-12T00:24:21.399Z,11.80
2018-10-12T00:26:51.890Z,11.80
2018-10-12T00:29:23.184Z,12.10
2018-10-12T00:31:53.173Z,11.73
2018-10-12T00:34:23.324Z,11.00
2018-10-12T00:36:53.984Z,12.70
2018-10-12T00:39:24.973Z,11.27
2018-10-12T00:41:55.868Z,10.97
2018-10-12T00:44:25.701Z,12.10
2018-10-12T00:46:56.578Z,12.13
2018-10-12T00:49:28.207Z,11.73
2018-10-12T00:51:58.321Z,11.83
2018-10-12T00:54:28.616Z,11.80
2018-10-12T00:56:59.147Z,12.17
2018-10-12T00:59:30.256Z,11.60
2018-10-12T01:02:00.641Z,10.93
2018-10-12T01:04:30.340Z,11.97
2018-10-12T01:07:01.093Z,11.70
2018-10-12T01:09:32.468Z,11.43
2018-10-12T01:12:40.713Z,11.63
2018-10-12T01:15:10.995Z,12.60
2018-10-12T01:17:40.920Z,10.63
2018-10-12T01:20:13.015Z,11.57
2018-10-12T01:22:44.684Z,12.27
2018-10-12T01:25:14.525Z,11.30
2018-10-12T01:27:44.186Z,12.03
2018-10-12T01:30:14.939Z,12.00
2018-10-12T01:32:50.177Z,11.57
2018-10-12T01:35:20.438Z,11.23
2018-10-12T01:37:50.387Z,11.70
2018-10-12T01:40:20.178Z,12.23
2018-10-12T01:42:49.808Z,11.30
2018-10-12T01:45:20.368Z,12.07
2018-10-12T01:47:50.280Z,11.60
2018-10-12T01:50:20.312Z,12.60
2018-10-12T01:52:50.684Z,11.93
2018-10-12T01:55:21.538Z,11.43
2018-10-12T01:57:54.553Z,11.90
2018-10-12T02:00:25.021Z,11.33
2018-10-12T02:02:54.928Z,12.07
2018-10-12T02:05:25.809Z,12.00
2018-10-12T02:07:56.222Z,11.00
2018-10-12T02:10:25.879Z,11.50
2018-10-12T02:12:55.716Z,11.57
2018-10-12T02:15:26.065Z,11.60
2018-10-12T02:17:55.948Z,11.30
2018-10-12T02:20:25.781Z,11.87
2018-10-12T02:22:56.100Z,12.40
2018-10-12T02:25:26.704Z,12.57
2018-10-12T02:27:56.811Z,11.47
2018-10-12T02:30:27.188Z,11.23
2018-10-12T02:32:59.246Z,11.00
2018-10-12T02:35:31.715Z,11.43
2018-10-12T02:38:03.240Z,11.47
2018-10-12T02:40:33.114Z,11.50
2018-10-12T02:43:03.404Z,11.03
2018-10-12T02:45:33.352Z,10.90
2018-10-12T02:48:03.025Z,11.00
2018-10-12T02:50:32.900Z,11.13
2018-10-12T02:53:02.568Z,9.77
2018-10-12T02:55:33.967Z,11.93
2018-10-12T02:58:04.082Z,11.57
2018-10-12T03:00:34.290Z,10.77
2018-10-12T03:03:04.199Z,10.67
2018-10-12T03:05:34.005Z,10.63
2018-10-12T03:08:04.416Z,11.40
2018-10-12T03:10:34.006Z,11.17
2018-10-12T03:13:04.486Z,11.47
2018-10-12T03:15:34.865Z,11.17
2018-10-12T03:18:04.414Z,10.43
2018-10-12T03:20:34.637Z,10.73
2018-10-12T03:23:04.626Z,10.13
2018-10-12T03:25:34.782Z,10.70
2018-10-12T03:28:15.438Z,10.80
2018-10-12T03:30:45.266Z,10.50
2018-10-12T03:33:15.203Z,11.60
2018-10-12T03:35:45.603Z,11.10
2018-10-12T03:38:16.392Z,11.60
2018-10-12T03:40:46.297Z,11.40
2018-10-12T03:43:16.910Z,10.10
2018-10-12T03:45:46.965Z,11.23
2018-10-12T03:48:16.878Z,11.37
2018-10-12T03:50:47.039Z,10.90
2018-10-12T03:53:17.199Z,10.57
2018-10-12T03:55:46.766Z,10.70
2018-10-12T03:58:16.824Z,10.70
2018-10-12T04:00:46.348Z,9.90
2018-10-12T04:03:16.510Z,10.53
2018-10-12T04:05:46.687Z,10.20
2018-10-12T04:08:16.873Z,10.70
2018-10-12T04:10:55.550Z,10.13
2018-10-12T04:13:27.231Z,10.20
2018-10-12T04:15:57.939Z,10.43
2018-10-12T04:18:27.754Z,10.20
2018-10-12T04:20:57.636Z,10.13
2018-10-12T04:23:29.447Z,9.43
2018-10-12T04:25:59.252Z,9.40
2018-10-12T04:28:29.216Z,10.37
2018-10-12T04:30:59.369Z,10.07
2018-10-12T04:33:29.090Z,9.03
2018-10-12T04:36:01.000Z,9.27
2018-10-12T04:41:15.299Z,8.60
2018-10-12T04:43:46.015Z,9.77
2018-10-12T04:46:21.671Z,8.57
2018-10-12T04:48:52.478Z,8.80
2018-10-12T04:51:27.357Z,8.70
2018-10-12T04:53:58.472Z,9.70
2018-10-12T04:56:28.520Z,10.07
2018-10-12T04:58:58.392Z,8.43
2018-10-12T05:01:28.570Z,8.70
2018-10-12T05:03:58.407Z,8.93
2018-10-12T05:06:28.268Z,9.87
2018-10-12T05:08:58.365Z,8.80
2018-10-12T05:11:28.228Z,9.70
2018-10-12T05:13:57.901Z,8.80
2018-10-12T05:16:27.743Z,8.47
2018-10-12T05:18:57.640Z,9.20
2018-10-12T05:21:28.393Z,8.60
2018-10-12T05:23:58.399Z,9.13
2018-10-12T05:26:28.030Z,9.33
2018-10-12T05:28:57.715Z,9.00
2018-10-12T05:31:27.604Z,9.40
2018-10-12T05:33:57.787Z,8.57
2018-10-12T05:36:27.678Z,9.17
2018-10-12T05:38:57.601Z,9.17
2018-10-12T05:41:27.591Z,9.50
2018-10-12T05:43:57.419Z,8.80
2018-10-12T05:46:27.236Z,10.17
2018-10-12T05:49:07.397Z,9.30
2018-10-12T05:51:38.013Z,9.40
2018-10-12T05:54:07.842Z,9.87
2018-10-12T05:56:39.980Z,10.37
2018-10-12T05:59:11.703Z,10.07
2018-10-12T06:01:41.407Z,8.63
2018-10-12T06:04:11.255Z,9.80
2018-10-12T06:06:42.673Z,8.60
2018-10-12T06:09:12.922Z,9.30
2018-10-12T06:11:42.526Z,8.70
2018-10-12T06:14:12.294Z,9.67
2018-10-12T06:16:42.234Z,9.67
2018-10-12T06:19:13.120Z,8.97
2018-10-12T06:21:43.225Z,8.70
2018-10-12T06:24:12.974Z,8.87
2018-10-12T06:26:44.533Z,8.40
2018-10-12T06:29:15.725Z,8.73
2018-10-12T06:31:46.748Z,9.90
2018-10-12T06:34:16.849Z,9.80
2018-10-12T06:36:47.956Z,9.50
2018-10-12T06:39:18.173Z,9.33
2018-10-12T06:41:48.632Z,8.73
2018-10-12T06:44:18.877Z,8.87
2018-10-12T06:46:48.598Z,9.27
2018-10-12T06:49:18.340Z,8.60
2018-10-12T06:51:48.546Z,8.67
2018-10-12T06:54:18.421Z,9.77
2018-10-12T06:56:48.778Z,9.10
2018-10-12T06:59:22.233Z,8.70
2018-10-12T07:01:52.541Z,8.40
2018-10-12T07:04:22.755Z,9.50
2018-10-12T07:06:53.886Z,9.23
2018-10-12T07:09:24.637Z,9.10
2018-10-12T07:11:54.612Z,9.47
2018-10-12T07:14:24.737Z,8.50
2018-10-12T07:16:54.798Z,10.10
2018-10-12T07:19:24.616Z,10.23
2018-10-12T07:21:55.065Z,10.17
2018-10-12T07:24:24.971Z,11.00
2018-10-12T07:26:54.772Z,11.57
2018-10-12T07:29:25.432Z,11.43
2018-10-12T07:31:55.204Z,11.40
2018-10-12T07:34:24.667Z,11.40
2018-10-12T07:36:54.981Z,11.13
2018-10-12T07:39:24.995Z,12.70
2018-10-12T07:41:55.662Z,12.23
2018-10-12T07:44:26.105Z,12.73
2018-10-12T07:46:56.344Z,11.80
2018-10-12T07:49:25.959Z,12.60
2018-10-12T07:55:38.245Z,12.73
2018-10-12T07:58:09.156Z,11.37
2018-10-12T08:00:38.673Z,12.70
2018-10-12T08:06:37.172Z,13.47
2018-10-12T08:09:10.300Z,12.97
2018-10-12T08:11:41.407Z,12.50
2018-10-12T08:14:12.195Z,13.03
2018-10-12T08:16:42.524Z,12.60
2018-10-12T08:19:14.327Z,12.77
2018-10-12T08:21:45.844Z,12.50
2018-10-12T08:24:15.844Z,11.83
2018-10-12T08:26:46.006Z,12.87
2018-10-12T08:29:15.685Z,13.53
2018-10-12T08:31:45.505Z,13.17
2018-10-12T08:34:15.286Z,13.13
2018-10-12T08:36:45.345Z,12.57
2018-10-12T08:39:16.001Z,12.67
2018-10-12T08:41:48.071Z,12.23
2018-10-12T08:44:18.359Z,13.80
2018-10-12T08:46:48.511Z,12.50
2018-10-12T08:49:18.139Z,12.47
2018-10-12T08:51:48.103Z,10.77
2018-10-12T08:54:18.891Z,11.47
2018-10-12T08:56:51.300Z,12.53
2018-10-12T08:59:21.355Z,10.67
2018-10-12T09:01:51.509Z,11.37
2018-10-12T09:04:21.069Z,11.00
2018-10-12T09:06:50.590Z,9.30
2018-10-12T09:09:20.516Z,9.67
2018-10-12T09:11:50.390Z,10.00
2018-10-12T09:14:22.881Z,8.87
2018-10-12T09:16:53.098Z,8.10
2018-10-12T09:19:23.028Z,7.97
2018-10-12T09:21:54.731Z,7.37
2018-10-12T09:24:25.611Z,8.00
2018-10-12T09:26:57.632Z,7.27
2018-10-12T09:29:27.285Z,7.23
2018-10-12T09:31:56.972Z,7.17
2018-10-12T09:34:26.970Z,6.90
2018-10-12T09:36:57.877Z,6.47
2018-10-12T09:39:32.811Z,6.27
2018-10-12T09:42:03.223Z,5.40
2018-10-12T09:44:37.804Z,6.00
2018-10-12T09:47:09.276Z,4.70
2018-10-12T09:49:42.137Z,5.80
2018-10-12T09:52:13.959Z,5.53
2018-10-12T09:54:44.303Z,5.77
2018-10-12T09:57:23.957Z,5.60
2018-10-12T09:59:56.409Z,5.27
2018-10-12T10:02:32.795Z,5.07
2018-10-12T10:05:10.503Z,4.30
2018-10-12T10:07:41.911Z,5.27
2018-10-12T10:10:13.432Z,5.50
2018-10-12T10:12:44.770Z,4.90
2018-10-12T10:15:20.344Z,6.23
2018-10-12T10:17:51.535Z,4.70
2018-10-12T10:20:22.919Z,4.40
2018-10-12T10:22:52.586Z,4.90
2018-10-12T10:25:24.015Z,5.20
2018-10-12T10:27:54.772Z,5.37
2018-10-12T10:30:27.223Z,6.00
2018-10-12T10:32:57.157Z,5.87
2018-10-12T10:35:29.156Z,6.00
2018-10-12T10:37:59.860Z,5.97
2018-10-12T10:40:30.332Z,7.07
2018-10-12T10:43:01.769Z,6.40
2018-10-12T10:45:33.847Z,6.70
2018-10-12T10:48:10.635Z,6.67
2018-10-12T10:50:41.049Z,6.20
2018-10-12T10:53:12.169Z,7.30
2018-10-12T10:55:44.528Z,6.70
2018-10-12T10:58:14.874Z,6.90
2018-10-12T11:00:45.101Z,7.57
2018-10-12T11:03:15.990Z,7.23
2018-10-12T11:05:46.794Z,6.77
2018-10-12T11:08:17.914Z,7.50
2018-10-12T11:10:48.099Z,8.23
2018-10-12T11:13:21.055Z,7.40
2018-10-12T11:15:53.932Z,7.60
2018-10-12T11:18:29.418Z,7.50
2018-10-12T11:21:07.213Z,7.70
2018-10-12T11:23:40.361Z,7.20
2018-10-12T11:26:15.368Z,6.80
2018-10-12T11:28:45.141Z,6.10
2018-10-12T11:31:17.246Z,6.87
2018-10-12T11:33:48.999Z,6.77
2018-10-12T11:36:20.495Z,6.20
2018-10-12T11:38:53.240Z,7.07
2018-10-12T11:41:23.982Z,5.97
2018-10-12T11:43:54.096Z,7.20
2018-10-12T11:46:26.096Z,6.60
2018-10-12T11:48:57.276Z,6.07
2018-10-12T11:51:28.179Z,6.30
2018-10-12T11:53:58.859Z,5.83
2018-10-12T11:56:29.551Z,5.93
2018-10-12T11:59:00.052Z,6.30
2018-10-12T12:01:30.903Z,5.93
2018-10-12T12:04:02.028Z,5.40
2018-10-12T12:06:34.730Z,8.30
2018-10-12T12:09:04.879Z,5.90
2018-10-12T12:11:36.011Z,8.43
2018-10-12T12:14:06.702Z,6.07
2018-10-12T12:16:38.062Z,4.60
2018-10-12T12:19:08.106Z,5.33
2018-10-12T12:21:38.082Z,4.00
2018-10-12T12:24:08.818Z,4.70
2018-10-12T12:26:38.492Z,5.20
2018-10-12T12:29:08.843Z,5.50
2018-10-12T12:31:39.459Z,4.70
2018-10-12T12:34:09.141Z,4.53
2018-10-12T12:36:41.491Z,4.87
2018-10-12T12:39:12.855Z,4.90
2018-10-12T12:41:43.865Z,5.10
2018-10-12T12:44:14.762Z,5.10
2018-10-12T12:46:46.085Z,4.50
2018-10-12T12:49:16.999Z,4.27
2018-10-12T12:51:47.552Z,4.50
2018-10-12T12:54:21.172Z,4.33
2018-10-12T12:56:51.495Z,4.77
2018-10-12T12:59:21.594Z,4.10
2018-10-12T13:01:53.166Z,15.43
2018-10-12T13:04:29.693Z,9.27
2018-10-12T13:07:04.859Z,4.57
2018-10-12T13:09:35.050Z,4.60
2018-10-12T13:12:05.745Z,3.90
2018-10-12T13:14:35.687Z,4.53
2018-10-12T13:17:07.290Z,3.90
2018-10-12T13:19:37.528Z,4.67
2018-10-12T13:22:08.902Z,4.60
2018-10-12T13:24:39.366Z,4.50
2018-10-12T13:27:11.359Z,5.20
2018-10-12T13:29:41.549Z,3.63
2018-10-12T13:32:12.714Z,4.73
2018-10-12T13:34:43.067Z,4.20
2018-10-12T13:37:14.200Z,4.40
2018-10-12T13:39:44.427Z,5.00
2018-10-12T13:42:14.179Z,3.50
2018-10-12T13:44:50.283Z,3.90
2018-10-12T13:47:20.768Z,4.40
2018-10-12T13:49:50.683Z,4.53
2018-10-12T13:52:20.919Z,4.10
2018-10-12T13:54:55.325Z,4.20
2018-10-12T13:57:26.438Z,4.10
2018-10-12T13:59:57.556Z,5.57
2018-10-12T14:02:28.485Z,10.70
2018-10-12T14:05:01.008Z,5.23
2018-10-12T14:07:32.837Z,4.10
2018-10-12T14:10:03.648Z,6.93
2018-10-12T14:12:35.765Z,4.33
2018-10-12T14:15:06.246Z,6.40
2018-10-12T14:17:37.086Z,4.10
2018-10-12T14:20:08.253Z,5.37
2018-10-12T14:22:38.708Z,8.13
2018-10-12T14:25:11.162Z,8.23
2018-10-12T14:27:41.476Z,5.13
2018-10-12T14:30:12.289Z,4.40
2018-10-12T14:32:42.795Z,3.10
2018-10-12T14:35:13.231Z,3.40
2018-10-12T14:37:43.433Z,4.07
2018-10-12T14:40:14.597Z,3.60
2018-10-12T14:42:45.209Z,4.20
2018-10-12T14:45:16.056Z,4.13
2018-10-12T14:47:48.097Z,4.53
2018-10-12T14:50:22.114Z,3.97
2018-10-12T14:52:54.193Z,3.83
2018-10-12T14:55:25.751Z,4.10
2018-10-12T14:57:57.515Z,4.17
2018-10-12T15:00:28.493Z,3.97
2018-10-12T15:03:00.246Z,3.67
2018-10-12T15:05:33.295Z,3.70
2018-10-12T15:08:05.366Z,4.20
2018-10-12T15:10:35.545Z,3.73
2018-10-12T15:13:05.766Z,13.50
2018-10-12T15:15:36.277Z,8.50
2018-10-12T15:18:07.540Z,6.03
2018-10-12T15:20:37.437Z,4.43
2018-10-12T15:23:07.912Z,6.90
2018-10-12T15:25:37.718Z,7.53
2018-10-12T15:28:07.639Z,5.40
2018-10-12T15:30:37.339Z,4.30
2018-10-12T15:33:07.331Z,3.93
2018-10-12T15:35:38.036Z,4.30
2018-10-12T15:38:08.725Z,4.23
2018-10-12T15:40:39.251Z,4.13
2018-10-12T15:43:09.690Z,4.57
2018-10-12T15:45:39.897Z,3.83
2018-10-12T15:48:09.836Z,4.97
2018-10-12T15:50:39.415Z,5.67
2018-10-12T15:53:09.954Z,6.10
2018-10-12T15:55:41.024Z,6.10
2018-10-12T15:58:12.508Z,6.90
2018-10-12T16:00:44.156Z,9.50
2018-10-12T16:03:13.915Z,9.20
2018-10-12T16:05:44.209Z,8.20
2018-10-12T16:08:14.873Z,6.13
2018-10-12T16:10:47.556Z,5.67
2018-10-12T16:13:18.996Z,11.37
2018-10-12T16:15:50.765Z,27.83
2018-10-12T16:18:22.026Z,23.73
2018-10-12T16:20:53.530Z,13.80
2018-10-12T16:23:30.674Z,11.77
2018-10-12T16:26:19.672Z,8.07
2018-10-12T16:28:54.591Z,9.47
2018-10-12T16:31:26.983Z,9.20
2018-10-12T16:34:02.310Z,11.07
2018-10-12T16:36:34.353Z,10.87
2018-10-12T16:39:06.585Z,8.77
2018-10-12T16:41:38.487Z,11.40
2018-10-12T16:44:09.944Z,10.23
2018-10-12T16:46:40.335Z,8.37
2018-10-12T16:49:10.580Z,8.00
2018-10-12T16:51:40.649Z,7.13
2018-10-12T16:54:11.981Z,6.67
2018-10-12T16:56:43.615Z,6.67
2018-10-12T16:59:15.088Z,7.00
2018-10-12T17:01:45.767Z,7.83
2018-10-12T17:04:17.748Z,6.63
2018-10-12T17:06:47.891Z,7.50
2018-10-12T17:09:18.637Z,6.63
2018-10-12T17:11:50.088Z,6.80
2018-10-12T17:14:21.353Z,8.43
2018-10-12T17:16:54.766Z,7.77
2018-10-12T17:19:26.090Z,6.70
2018-10-12T17:21:58.301Z,7.20
2018-10-12T17:24:29.212Z,7.03
2018-10-12T17:27:01.552Z,6.83
2018-10-12T17:29:32.178Z,7.80
2018-10-12T17:32:03.747Z,7.47
2018-10-12T17:34:33.938Z,7.00
2018-10-12T17:37:04.382Z,6.50
2018-10-12T17:39:36.784Z,7.07
2018-10-12T17:42:12.837Z,7.43
2018-10-12T17:44:43.485Z,7.60
2018-10-12T17:47:13.757Z,6.80
2018-10-12T17:49:43.460Z,7.40
2018-10-12T17:52:13.430Z,7.47
2018-10-12T17:54:43.027Z,7.10
2018-10-12T17:57:13.760Z,7.50
2018-10-12T17:59:44.233Z,7.17
2018-10-12T18:02:16.438Z,8.17
2018-10-12T18:04:46.043Z,7.00
2018-10-12T18:07:16.947Z,8.00
2018-10-12T18:09:47.628Z,8.07
2018-10-12T18:12:19.915Z,7.90
2018-10-12T18:14:50.369Z,7.70
2018-10-12T18:17:21.405Z,8.03
2018-10-12T18:19:52.699Z,8.20
2018-10-12T18:22:22.494Z,8.40
2018-10-12T18:24:52.751Z,7.50
2018-10-12T18:27:24.547Z,7.40
2018-10-12T18:29:55.142Z,7.67
2018-10-12T18:32:24.972Z,8.10
2018-10-12T18:34:55.169Z,8.33
2018-10-12T18:37:26.484Z,7.47
2018-10-12T18:39:56.359Z,7.60
2018-10-12T18:42:26.031Z,8.47
2018-10-12T18:44:56.549Z,8.37
2018-10-12T18:47:26.951Z,7.43
2018-10-12T18:49:57.427Z,9.40
2018-10-12T18:52:27.780Z,9.67
2018-10-12T18:54:58.173Z,8.47
2018-10-12T18:57:30.349Z,7.93
2018-10-12T19:00:01.614Z,8.33
2018-10-12T19:02:34.098Z,8.23
2018-10-12T19:05:06.714Z,8.00
2018-10-12T19:07:36.610Z,8.27
2018-10-12T19:10:07.712Z,7.37
2018-10-12T19:12:38.862Z,7.40
2018-10-12T19:15:09.798Z,7.23
2018-10-12T19:17:39.950Z,6.67
2018-10-12T19:20:12.501Z,6.10
2018-10-12T19:22:42.253Z,6.67
2018-10-12T19:25:14.302Z,6.07
2018-10-12T19:27:44.753Z,6.47
2018-10-12T19:30:17.940Z,6.03
2018-10-12T19:32:47.922Z,6.43
2018-10-12T19:35:19.362Z,6.17
2018-10-12T19:37:50.132Z,6.10
2018-10-12T19:40:21.280Z,5.90
2018-10-12T19:42:51.445Z,6.40
2018-10-12T19:45:22.018Z,6.73
2018-10-12T19:47:51.884Z,6.90
2018-10-12T19:50:21.547Z,6.00
2018-10-12T19:52:52.139Z,5.70
2018-10-12T19:55:23.185Z,6.33
2018-10-12T19:57:52.839Z,6.43
2018-10-12T20:00:23.135Z,5.90
2018-10-12T20:02:53.511Z,5.33
2018-10-12T20:05:23.638Z,5.73
2018-10-12T20:07:53.446Z,6.30
2018-10-12T20:10:24.736Z,5.90
2018-10-12T20:12:54.760Z,5.70
2018-10-12T20:15:24.836Z,5.60
2018-10-12T20:17:55.741Z,5.87
2018-10-12T20:20:27.142Z,5.40
2018-10-12T20:22:57.105Z,6.27
2018-10-12T20:25:28.387Z,5.77
2018-10-12T20:27:58.913Z,6.40
2018-10-12T20:30:29.053Z,6.00
2018-10-12T20:32:59.876Z,6.20
2018-10-12T20:35:29.592Z,7.37
2018-10-12T20:37:59.847Z,7.03
2018-10-12T20:40:30.187Z,6.00
2018-10-12T20:42:59.939Z,6.63
2018-10-12T20:45:30.468Z,6.17
2018-10-12T20:48:00.586Z,6.83
2018-10-12T20:50:32.730Z,6.10
2018-10-12T20:53:03.112Z,6.77
2018-10-12T20:55:33.994Z,6.77
2018-10-12T20:58:10.352Z,6.90
2018-10-12T21:00:40.646Z,6.80
2018-10-12T21:03:12.142Z,6.13
2018-10-12T21:05:42.493Z,6.27
2018-10-12T21:08:12.541Z,5.70
2018-10-12T21:10:42.348Z,5.57
2018-10-12T21:13:11.947Z,6.50
2018-10-12T21:15:44.124Z,6.00
2018-10-12T21:18:14.026Z,6.33
2018-10-12T21:20:45.167Z,6.90
2018-10-12T21:23:15.308Z,6.93
2018-10-12T21:25:45.498Z,7.30
2018-10-12T21:28:16.374Z,6.60
2018-10-12T21:30:46.813Z,6.90
2018-10-12T21:33:17.852Z,6.30
2018-10-12T21:35:47.735Z,6.60
2018-10-12T21:38:18.197Z,6.30
2018-10-12T21:40:49.192Z,7.30
2018-10-12T21:43:19.081Z,6.53
2018-10-12T21:45:49.231Z,7.40
2018-10-12T21:48:19.697Z,7.17
2018-10-12T21:50:50.829Z,6.50
2018-10-12T21:53:21.074Z,6.50
2018-10-12T21:57:15.586Z,6.23
2018-10-12T21:59:45.782Z,6.63
2018-10-12T22:02:15.725Z,5.73
2018-10-12T22:04:45.681Z,6.33
2018-10-12T22:07:16.793Z,6.53
2018-10-12T22:09:46.972Z,6.00
2018-10-12T22:12:16.585Z,5.93
2018-10-12T22:14:46.929Z,6.17
2018-10-12T22:17:17.590Z,6.03
2018-10-12T22:19:48.314Z,6.23
2018-10-12T22:22:20.042Z,5.70
2018-10-12T22:24:49.899Z,5.50
2018-10-12T22:27:20.464Z,6.13
2018-10-12T22:29:50.958Z,6.37
2018-10-12T22:32:21.649Z,6.40
2018-10-12T22:34:53.903Z,5.27
2018-10-12T22:37:27.961Z,6.77
2018-10-12T22:39:58.528Z,6.07
2018-10-12T22:42:30.372Z,6.00
2018-10-12T22:45:02.011Z,5.50
2018-10-12T22:47:33.195Z,5.43
2018-10-12T22:50:03.814Z,5.20
2018-10-12T22:52:34.470Z,6.00
2018-10-12T22:55:05.979Z,6.73
2018-10-12T22:57:38.125Z,5.37
2018-10-12T23:00:09.340Z,5.63
2018-10-12T23:02:39.439Z,5.00
2018-10-12T23:05:09.257Z,5.83
2018-10-12T23:07:39.086Z,5.47
2018-10-12T23:10:09.347Z,5.60
2018-10-12T23:12:41.475Z,6.30
2018-10-12T23:15:13.069Z,5.43
2018-10-12T23:17:45.004Z,5.57
2018-10-12T23:20:15.646Z,5.77
2018-10-12T23:22:47.048Z,7.20
2018-10-12T23:25:22.472Z,5.73
2018-10-12T23:27:55.964Z,5.93
2018-10-12T23:30:26.957Z,6.30
2018-10-12T23:33:08.924Z,6.03
2018-10-12T23:35:39.063Z,5.60
2018-10-12T23:38:10.455Z,6.17
2018-10-12T23:40:40.093Z,5.87
2018-10-12T23:43:10.231Z,5.70
2018-10-12T23:45:39.821Z,6.30
2018-10-12T23:48:09.756Z,5.83
2018-10-12T23:50:39.396Z,6.57
2018-10-12T23:53:10.893Z,6.20
2018-10-12T23:55:41.354Z,6.90
2018-10-12T23:58:10.938Z,6.60
